Time;durP1;ratioP1;P1;durP2;ratioP2;P2;SDS_P1;SDS_P2;PMS_P1;PMS_P2;Temp;Humidity;BMP_temperature;BMP_pressure;BME280_temperature;BME280_humidity;BME280_pressure;Samples;Min_cycle;Max_cycle;Signal;HPM_P1;HPM_P2
2022/09/24 00:02:05;;;;;;;37.08;31.13;;;13.80;99.90;;;;;;5073364;28;20036;-54
2022/09/24 00:04:30;;;;;;;39.40;31.85;;;13.70;99.90;;;;;;5074467;28;20068;-55
2022/09/24 00:06:56;;;;;;;35.17;30.33;;;13.70;99.90;;;;;;5075382;28;20039;-55
2022/09/24 00:09:22;;;;;;;35.72;30.13;;;13.80;99.90;;;;;;5075469;28;20098;-55
2022/09/24 00:11:50;;;;;;;39.15;31.42;;;13.80;99.90;;;;;;5075485;28;20037;-53
2022/09/24 00:14:16;;;;;;;39.78;30.80;;;13.80;99.90;;;;;;5075441;28;20044;-54
2022/09/24 00:16:44;;;;;;;39.83;32.17;;;13.70;99.90;;;;;;5075411;28;20041;-53
2022/09/24 00:19:12;;;;;;;41.65;35.03;;;13.80;99.90;;;;;;5075087;28;20032;-55
2022/09/24 00:21:38;;;;;;;41.38;34.72;;;13.80;99.90;;;;;;5075251;28;20036;-53
2022/09/24 00:24:07;;;;;;;48.33;35.03;;;13.70;99.90;;;;;;5075241;28;20044;-53
2022/09/24 00:26:48;;;;;;;44.80;36.22;;;13.70;99.90;;;;;;5074870;28;20040;-54
2022/09/24 00:29:19;;;;;;;45.75;35.05;;;13.80;99.90;;;;;;5075148;28;20055;-54
2022/09/24 00:31:44;;;;;;;42.63;35.28;;;13.80;99.90;;;;;;5075181;28;20036;-54
2022/09/24 00:34:10;;;;;;;47.42;35.20;;;13.70;99.90;;;;;;5075020;28;20040;-54
2022/09/24 00:36:36;;;;;;;45.22;37.75;;;13.80;99.90;;;;;;5074834;28;20032;-54
2022/09/24 00:39:02;;;;;;;50.55;38.42;;;13.80;99.90;;;;;;5075707;28;20088;-51
2022/09/24 00:41:31;;;;;;;43.58;36.50;;;13.70;99.90;;;;;;5073743;28;20458;-53
2022/09/24 00:43:57;;;;;;;47.05;36.85;;;13.70;99.90;;;;;;5074932;28;20094;-55
2022/09/24 00:46:35;;;;;;;47.22;40.13;;;13.80;99.90;;;;;;5074758;28;20028;-54
2022/09/24 00:49:09;;;;;;;49.17;40.33;;;13.80;99.90;;;;;;5074674;28;20040;-55
2022/09/24 00:51:35;;;;;;;54.80;41.70;;;13.70;99.90;;;;;;5074625;28;20044;-55
2022/09/24 00:54:07;;;;;;;53.28;40.30;;;13.80;99.90;;;;;;5074284;28;20071;-53
2022/09/24 00:56:36;;;;;;;46.85;37.95;;;13.70;99.90;;;;;;5074694;28;20438;-55
2022/09/24 00:59:05;;;;;;;52.17;41.15;;;13.80;99.90;;;;;;5074308;28;20078;-54
2022/09/24 01:01:31;;;;;;;50.72;41.33;;;13.80;99.90;;;;;;5074214;28;20036;-56
2022/09/24 01:03:59;;;;;;;49.80;39.45;;;13.80;99.90;;;;;;5074444;28;20040;-55
2022/09/24 01:06:25;;;;;;;49.93;37.87;;;13.90;99.90;;;;;;5074423;28;20036;-54
2022/09/24 01:08:53;;;;;;;51.45;41.55;;;13.90;99.90;;;;;;5074389;28;20537;-55
2022/09/24 01:11:33;;;;;;;58.35;43.60;;;13.80;99.90;;;;;;5074269;28;20037;-56
2022/09/24 01:14:26;;;;;;;53.03;41.80;;;13.90;99.90;;;;;;5074323;28;20036;-56
2022/09/24 01:17:31;;;;;;;50.50;41.63;;;13.90;99.90;;;;;;5074209;28;20044;-55
2022/09/24 01:20:24;;;;;;;53.83;43.60;;;13.80;99.90;;;;;;5073848;28;20045;-55
2022/09/24 01:23:08;;;;;;;53.67;41.63;;;13.90;99.90;;;;;;5074235;28;20111;-55
2022/09/24 01:25:46;;;;;;;58.58;43.83;;;13.90;99.90;;;;;;5074340;28;20196;-56
2022/09/24 01:28:35;;;;;;;63.88;45.40;;;13.80;99.90;;;;;;5073839;28;20037;-55
2022/09/24 01:31:28;;;;;;;70.30;48.88;;;13.80;99.90;;;;;;5073940;28;20120;-56
2022/09/24 01:33:58;;;;;;;59.05;44.42;;;14.00;99.90;;;;;;5014925;28;20100;-55
2022/09/24 01:36:25;;;;;;;64.97;47.58;;;13.90;99.90;;;;;;5031839;28;20504;-56
2022/09/24 01:38:53;;;;;;;75.38;51.58;;;13.70;99.90;;;;;;5031343;28;20060;-55
2022/09/24 01:41:20;;;;;;;61.63;46.42;;;14.00;99.90;;;;;;5031637;28;20033;-56
2022/09/24 01:43:47;;;;;;;71.28;51.33;;;13.80;99.90;;;;;;5031722;28;20053;-56
2022/09/24 01:46:16;;;;;;;71.85;50.25;;;13.80;99.90;;;;;;5031800;28;20495;-56
2022/09/24 01:48:42;;;;;;;67.05;51.15;;;13.70;99.90;;;;;;5031612;28;20048;-55
2022/09/24 01:51:13;;;;;;;74.65;52.67;;;14.00;99.90;;;;;;5031738;28;20045;-55
2022/09/24 01:53:48;;;;;;;71.30;51.25;;;14.00;99.90;;;;;;5031459;28;20504;-54
2022/09/24 01:56:19;;;;;;;70.45;51.33;;;13.70;99.90;;;;;;5031564;28;20164;-55
2022/09/24 01:58:48;;;;;;;75.15;54.67;;;13.90;99.90;;;;;;5031542;28;20049;-55
2022/09/24 02:01:22;;;;;;;69.60;52.55;;;13.70;99.90;;;;;;5031630;28;20045;-55
2022/09/24 02:03:56;;;;;;;75.63;53.10;;;13.90;99.90;;;;;;5031569;28;20562;-56
2022/09/24 02:06:30;;;;;;;70.10;51.85;;;13.90;99.90;;;;;;5015076;28;20451;-55
2022/09/24 02:08:57;;;;;;;72.97;53.17;;;13.90;99.90;;;;;;5031449;28;20052;-56
2022/09/24 02:11:24;;;;;;;84.93;55.67;;;13.90;99.90;;;;;;5062584;28;20056;-60
2022/09/24 02:14:05;;;;;;;75.82;54.28;;;13.70;99.90;;;;;;5073473;28;20036;-56
2022/09/24 02:16:46;;;;;;;90.60;56.38;;;13.70;99.90;;;;;;5073471;28;20041;-56
2022/09/24 02:19:16;;;;;;;77.03;54.67;;;13.80;99.90;;;;;;5073579;28;20043;-57
2022/09/24 02:21:44;;;;;;;85.68;57.85;;;13.80;99.90;;;;;;5073354;28;20083;-55
2022/09/24 02:24:17;;;;;;;78.28;53.75;;;13.80;99.90;;;;;;5073472;28;20051;-56
2022/09/24 02:26:44;;;;;;;84.25;54.92;;;13.80;99.90;;;;;;5073439;28;20041;-56
2022/09/24 02:29:10;;;;;;;67.03;50.17;;;13.70;99.90;;;;;;5073412;28;20045;-55
2022/09/24 02:31:44;;;;;;;90.18;57.67;;;13.80;99.90;;;;;;5073367;28;20402;-56
2022/09/24 02:34:20;;;;;;;78.35;53.28;;;13.70;99.90;;;;;;5073433;28;20051;-55
2022/09/24 02:36:51;;;;;;;72.57;52.47;;;13.90;99.90;;;;;;5073176;28;20380;-56
2022/09/24 02:39:18;;;;;;;79.95;54.10;;;13.80;99.90;;;;;;5073167;28;20043;-56
2022/09/24 02:41:46;;;;;;;78.32;54.40;;;13.90;99.90;;;;;;5073630;28;20068;-56
2022/09/24 02:44:16;;;;;;;93.80;58.55;;;13.70;99.90;;;;;;5073335;28;20036;-55
2022/09/24 02:46:43;;;;;;;97.50;58.28;;;13.70;99.90;;;;;;5073135;28;20054;-55
2022/09/24 02:49:09;;;;;;;80.82;55.95;;;13.70;99.90;;;;;;5073268;28;20036;-56
2022/09/24 02:51:35;;;;;;;76.57;51.20;;;13.80;99.90;;;;;;5076605;28;20063;-54
2022/09/24 02:54:01;;;;;;;90.13;55.00;;;13.70;99.90;;;;;;5076558;28;20117;-55
2022/09/24 02:56:28;;;;;;;67.15;47.53;;;13.70;99.90;;;;;;5076694;28;20365;-55
2022/09/24 02:58:54;;;;;;;60.85;43.75;;;13.90;99.90;;;;;;5076782;28;20123;-56
2022/09/24 03:01:21;;;;;;;58.28;43.00;;;13.80;99.90;;;;;;5076814;28;20041;-55
2022/09/24 03:03:47;;;;;;;48.15;39.53;;;13.70;99.90;;;;;;5076730;28;20055;-55
2022/09/24 03:06:13;;;;;;;52.85;42.92;;;13.80;99.90;;;;;;5075611;28;20479;-55
2022/09/24 03:08:41;;;;;;;53.35;42.63;;;13.80;99.90;;;;;;5076665;28;20399;-54
2022/09/24 03:11:08;;;;;;;57.25;43.75;;;13.60;99.90;;;;;;5076411;28;20029;-54
2022/09/24 03:13:33;;;;;;;59.67;44.70;;;13.70;99.90;;;;;;5076546;28;20029;-54
2022/09/24 03:15:59;;;;;;;64.13;45.35;;;13.60;99.90;;;;;;5076302;28;20040;-52
2022/09/24 03:18:25;;;;;;;72.18;47.35;;;13.80;99.90;;;;;;5075248;28;20041;-54
2022/09/24 03:21:11;;;;;;;53.90;42.03;;;13.70;99.90;;;;;;5076434;28;20120;-52
2022/09/24 03:23:37;;;;;;;56.13;40.80;;;13.70;99.90;;;;;;5076431;28;20387;-55
2022/09/24 03:26:04;;;;;;;46.30;37.95;;;13.80;99.90;;;;;;5076294;28;20036;-53
2022/09/24 03:28:30;;;;;;;45.28;37.63;;;13.90;99.90;;;;;;5074976;28;20041;-54
2022/09/24 03:31:01;;;;;;;55.35;41.28;;;13.80;99.90;;;;;;5076188;28;20078;-55
2022/09/24 03:33:42;;;;;;;55.35;41.42;;;13.80;99.90;;;;;;5076116;28;20495;-54
2022/09/24 03:36:23;;;;;;;49.15;39.45;;;13.80;99.90;;;;;;5076275;28;20043;-53
2022/09/24 03:38:51;;;;;;;50.38;40.20;;;13.70;99.90;;;;;;5076026;28;20479;-52
2022/09/24 03:41:17;;;;;;;48.90;38.10;;;13.80;99.90;;;;;;5076134;28;20056;-53
2022/09/24 03:43:43;;;;;;;49.42;39.83;;;13.80;99.90;;;;;;5076436;28;20043;-52
2022/09/24 03:46:11;;;;;;;54.42;39.47;;;13.70;99.90;;;;;;5074764;28;20558;-52
2022/09/24 03:48:39;;;;;;;50.22;36.38;;;13.80;99.90;;;;;;5076064;28;20040;-54
2022/09/24 03:51:07;;;;;;;50.03;37.50;;;13.90;99.90;;;;;;5075949;28;20068;-52
2022/09/24 03:53:33;;;;;;;43.20;35.95;;;13.70;99.90;;;;;;5075685;28;20065;-56
2022/09/24 03:56:01;;;;;;;51.72;37.65;;;13.70;99.90;;;;;;5075838;28;20079;-55
2022/09/24 03:58:28;;;;;;;44.45;35.33;;;13.70;99.90;;;;;;5075689;28;20052;-55
2022/09/24 04:00:54;;;;;;;42.38;33.20;;;13.80;99.90;;;;;;5075290;28;20032;-55
2022/09/24 04:03:21;;;;;;;42.25;33.35;;;13.80;99.90;;;;;;5075758;28;20037;-55
2022/09/24 04:05:47;;;;;;;43.85;32.28;;;14.00;99.90;;;;;;5075551;28;20071;-56
2022/09/24 04:08:13;;;;;;;49.03;33.70;;;13.80;99.90;;;;;;5075826;28;20098;-56
2022/09/24 04:10:39;;;;;;;55.25;36.33;;;13.80;99.90;;;;;;5075560;28;20036;-55
2022/09/24 04:13:04;;;;;;;61.90;36.58;;;13.90;99.90;;;;;;5075463;28;20036;-55
2022/09/24 04:15:31;;;;;;;66.95;37.90;;;14.00;99.90;;;;;;5075484;28;20105;-55
2022/09/24 04:17:58;;;;;;;43.85;31.65;;;14.00;99.90;;;;;;5075108;28;20112;-54
2022/09/24 04:20:26;;;;;;;39.72;29.80;;;14.00;99.90;;;;;;5075300;28;20163;-55
2022/09/24 04:22:54;;;;;;;44.50;30.08;;;13.80;99.90;;;;;;5075133;28;20496;-56
2022/09/24 04:25:21;;;;;;;43.28;28.50;;;13.90;99.90;;;;;;5075211;28;20522;-55
2022/09/24 04:27:56;;;;;;;36.83;25.17;;;13.80;99.90;;;;;;5075201;28;20033;-55
2022/09/24 04:30:23;;;;;;;32.67;20.70;;;13.90;99.90;;;;;;5074922;28;20048;-56
2022/09/24 04:32:52;;;;;;;26.38;16.23;;;13.90;99.90;;;;;;5074894;28;20119;-55
2022/09/24 04:35:18;;;;;;;;;;;13.80;99.90;;;;;;5075592;28;20123;-56
2022/09/24 04:37:44;;;;;;;19.73;10.00;;;13.90;99.90;;;;;;5074828;28;20033;-56
2022/09/24 04:40:11;;;;;;;19.58;8.95;;;13.90;99.90;;;;;;5074762;28;20461;-56
2022/09/24 04:42:40;;;;;;;20.55;7.05;;;13.80;99.90;;;;;;5074969;28;20383;-56
2022/09/24 04:45:06;;;;;;;21.55;5.30;;;13.90;99.90;;;;;;5074868;28;20036;-55
2022/09/24 04:47:33;;;;;;;18.02;3.85;;;14.00;99.90;;;;;;5074690;28;20041;-56
2022/09/24 04:50:01;;;;;;;20.85;4.05;;;13.70;99.90;;;;;;5074902;28;20040;-55
2022/09/24 04:52:32;;;;;;;20.83;3.30;;;13.80;99.90;;;;;;5074739;28;20102;-55
2022/09/24 04:54:59;;;;;;;12.50;2.80;;;13.90;99.90;;;;;;5074257;28;20492;-56
2022/09/24 04:57:26;;;;;;;10.20;3.03;;;13.90;99.90;;;;;;5074632;28;20119;-56
2022/09/24 04:59:54;;;;;;;15.40;2.88;;;13.90;99.90;;;;;;5074567;28;20044;-56
2022/09/24 05:02:22;;;;;;;14.18;2.38;;;13.70;99.90;;;;;;5074528;28;20037;-56
2022/09/24 05:04:48;;;;;;;17.40;2.42;;;13.60;99.90;;;;;;5074515;28;20079;-55
2022/09/24 05:07:14;;;;;;;14.65;2.92;;;13.80;99.90;;;;;;5072785;28;20049;-55
2022/09/24 05:09:39;;;;;;;13.93;2.50;;;13.60;99.90;;;;;;5074470;28;20044;-56
2022/09/24 05:12:05;;;;;;;11.27;2.20;;;13.70;99.90;;;;;;5073901;28;20068;-55
2022/09/24 05:14:31;;;;;;;15.73;2.85;;;13.70;99.90;;;;;;5072829;28;20482;-56
2022/09/24 05:16:56;;;;;;;14.07;2.00;;;13.70;99.90;;;;;;5074170;28;20454;-55
2022/09/24 05:19:22;;;;;;;12.13;1.80;;;13.60;99.90;;;;;;5072744;28;20048;-56
2022/09/24 05:21:48;;;;;;;14.50;1.98;;;13.60;99.90;;;;;;5074114;28;20043;-56
2022/09/24 05:24:13;;;;;;;14.15;2.38;;;13.70;99.90;;;;;;5074205;28;20429;-56
2022/09/24 05:29:24;;;;;;;8.88;2.47;;;13.60;99.90;;;;;;5074345;28;20046;-56
2022/09/24 05:31:49;;;;;;;15.60;2.35;;;13.70;99.90;;;;;;5074096;28;20043;-56
2022/09/24 05:34:15;;;;;;;9.77;2.00;;;13.60;99.90;;;;;;5074009;28;20036;-56
2022/09/24 05:36:44;;;;;;;13.20;2.25;;;13.70;99.90;;;;;;5074040;28;20115;-55
2022/09/24 05:39:12;;;;;;;9.63;1.80;;;13.70;99.90;;;;;;5073962;28;20032;-55
2022/09/24 05:41:38;;;;;;;9.02;2.15;;;13.60;99.90;;;;;;5072540;28;20040;-55
2022/09/24 05:44:05;;;;;;;13.95;2.42;;;13.70;99.90;;;;;;5073942;28;20478;-57
2022/09/24 05:46:31;;;;;;;16.23;3.00;;;13.60;99.90;;;;;;5073956;28;20028;-55
2022/09/24 05:48:57;;;;;;;17.08;2.45;;;13.80;99.90;;;;;;5072364;28;20486;-55
2022/09/24 05:51:23;;;;;;;11.77;2.35;;;13.60;99.90;;;;;;5072061;28;20111;-55
2022/09/24 05:53:49;;;;;;;9.75;1.75;;;13.70;99.90;;;;;;5071930;28;20045;-56
2022/09/24 05:56:15;;;;;;;13.95;2.40;;;13.50;99.90;;;;;;5073640;28;20036;-55
2022/09/24 05:58:41;;;;;;;11.95;2.20;;;13.50;99.90;;;;;;5073529;28;20045;-56
2022/09/24 06:01:06;;;;;;;12.88;2.58;;;13.50;99.90;;;;;;5072380;28;20518;-56
2022/09/24 06:03:32;;;;;;;12.18;1.98;;;13.70;99.90;;;;;;5073668;28;20044;-56
2022/09/24 06:06:00;;;;;;;10.00;2.15;;;13.70;99.90;;;;;;5073698;28;20032;-56
2022/09/24 06:08:28;;;;;;;14.70;2.38;;;13.80;99.90;;;;;;5073599;28;20036;-55
2022/09/24 06:11:02;;;;;;;11.95;2.47;;;13.60;99.90;;;;;;5073529;28;20068;-55
2022/09/24 06:13:28;;;;;;;15.73;2.55;;;13.60;99.90;;;;;;5073682;28;20120;-56
2022/09/24 06:16:04;;;;;;;15.88;2.10;;;13.70;99.90;;;;;;5073482;28;20360;-56
2022/09/24 06:18:33;;;;;;;13.70;2.58;;;13.70;99.90;;;;;;5073327;28;20081;-56
2022/09/24 06:21:00;;;;;;;;;;;13.80;99.90;;;;;;5072463;28;20395;-57
2022/09/24 06:23:26;;;;;;;10.55;2.63;;;13.60;99.90;;;;;;5072069;28;20050;-55
2022/09/24 06:25:51;;;;;;;13.70;2.72;;;13.70;99.90;;;;;;5077092;28;20527;-55
2022/09/24 06:28:17;;;;;;;20.88;3.15;;;13.80;99.90;;;;;;5077556;28;20047;-56
2022/09/24 06:30:43;;;;;;;14.90;3.20;;;13.70;99.90;;;;;;5077440;28;20041;-56
2022/09/24 06:33:10;;;;;;;18.73;2.67;;;13.80;99.90;;;;;;5077340;28;20467;-55
2022/09/24 06:35:38;;;;;;;19.98;3.20;;;13.70;99.90;;;;;;5077426;28;20044;-56
2022/09/24 06:38:06;;;;;;;15.52;3.25;;;13.80;99.90;;;;;;5077349;28;20066;-56
2022/09/24 06:40:32;;;;;;;18.55;2.70;;;13.90;99.90;;;;;;5077208;28;20044;-56
2022/09/24 06:42:58;;;;;;;23.52;2.95;;;13.80;99.90;;;;;;5077142;28;20032;-57
2022/09/24 06:45:25;;;;;;;17.45;3.00;;;13.70;99.90;;;;;;5077072;28;20051;-56
2022/09/24 06:47:55;;;;;;;23.05;2.63;;;13.90;99.90;;;;;;5077184;28;20032;-56
2022/09/24 06:50:26;;;;;;;13.55;3.20;;;13.70;99.90;;;;;;5076921;28;20127;-56
2022/09/24 06:52:52;;;;;;;11.00;2.40;;;13.70;99.90;;;;;;5076651;28;20045;-56
2022/09/24 06:55:18;;;;;;;25.33;3.50;;;13.70;99.90;;;;;;5076267;28;20057;-55
2022/09/24 06:57:44;;;;;;;14.25;2.50;;;13.90;99.90;;;;;;5076927;28;20045;-55
2022/09/24 07:00:12;;;;;;;18.77;3.60;;;13.80;99.90;;;;;;5075646;28;20052;-55
2022/09/24 07:02:37;;;;;;;18.75;2.78;;;13.70;99.90;;;;;;5076739;28;20037;-55
2022/09/24 07:05:04;;;;;;;11.35;2.95;;;13.70;99.90;;;;;;5076798;28;20036;-56
2022/09/24 07:07:31;;;;;;;13.57;2.20;;;14.00;99.90;;;;;;5076614;28;20047;-56
2022/09/24 07:10:02;;;;;;;16.67;2.50;;;13.70;99.90;;;;;;5076388;28;20097;-55
2022/09/24 07:12:29;;;;;;;15.05;2.70;;;13.80;99.90;;;;;;5076608;28;20502;-56
2022/09/24 07:14:56;;;;;;;13.20;2.30;;;13.70;99.90;;;;;;5076339;28;20517;-55
2022/09/24 07:17:23;;;;;;;17.10;2.85;;;13.90;99.90;;;;;;5076897;28;20052;-56
2022/09/24 07:19:48;;;;;;;17.05;3.15;;;13.80;99.90;;;;;;5069539;28;20036;-56
2022/09/24 07:22:14;;;;;;;15.70;2.60;;;13.90;99.90;;;;;;5075564;28;20390;-57
2022/09/24 07:24:40;;;;;;;15.15;2.65;;;14.00;99.90;;;;;;5073751;28;20398;-56
2022/09/24 07:27:06;;;;;;;18.17;2.75;;;14.00;99.90;;;;;;5075753;28;20090;-55
2022/09/24 07:29:32;;;;;;;13.15;2.10;;;14.10;99.90;;;;;;5064794;28;20529;-55
2022/09/24 07:31:58;;;;;;;23.85;2.60;;;14.10;99.90;;;;;;5075339;28;20075;-56
2022/09/24 07:34:23;;;;;;;13.55;2.30;;;14.00;99.90;;;;;;5075376;28;20135;-56
2022/09/24 07:36:49;;;;;;;8.70;2.58;;;14.20;99.90;;;;;;5073264;28;20055;-56
2022/09/24 07:39:15;;;;;;;15.75;3.28;;;14.10;99.90;;;;;;5074379;28;20090;-55
2022/09/24 07:41:41;;;;;;;12.15;2.05;;;14.00;99.90;;;;;;5075724;28;20082;-55
2022/09/24 07:44:10;;;;;;;12.93;2.55;;;14.10;99.90;;;;;;5074964;28;20441;-55
2022/09/24 07:46:36;;;;;;;18.42;3.28;;;14.10;99.90;;;;;;5075601;28;20032;-55
2022/09/24 07:49:02;;;;;;;27.48;2.83;;;14.30;99.90;;;;;;5075440;28;20438;-55
2022/09/24 07:51:28;;;;;;;8.50;2.00;;;14.20;99.90;;;;;;5075225;28;20078;-55
2022/09/24 07:53:55;;;;;;;16.35;2.45;;;14.20;99.90;;;;;;5074710;28;20052;-56
2022/09/24 07:56:21;;;;;;;10.80;2.22;;;14.10;99.90;;;;;;5075258;28;20047;-55
2022/09/24 07:58:51;;;;;;;11.00;1.63;;;14.20;99.90;;;;;;5075096;28;20040;-55
2022/09/24 08:01:17;;;;;;;8.40;1.40;;;14.10;99.90;;;;;;5075168;28;20037;-55
2022/09/24 08:03:45;;;;;;;9.75;1.95;;;14.10;99.90;;;;;;5074972;28;20064;-56
2022/09/24 08:06:11;;;;;;;10.13;2.00;;;14.10;99.90;;;;;;5074853;28;20044;-56
2022/09/24 08:08:37;;;;;;;8.05;1.63;;;14.10;99.90;;;;;;5074769;28;20072;-56
2022/09/24 08:11:08;;;;;;;21.25;3.63;;;14.30;99.90;;;;;;5074981;28;20036;-56
2022/09/24 08:13:33;;;;;;;17.65;2.47;;;14.30;99.90;;;;;;5074783;28;20085;-56
2022/09/24 08:16:00;;;;;;;13.15;1.63;;;14.40;99.90;;;;;;5074233;28;20029;-56
2022/09/24 08:18:27;;;;;;;12.70;1.80;;;14.30;99.90;;;;;;5074028;28;20107;-56
2022/09/24 08:20:53;;;;;;;9.05;1.75;;;14.30;99.90;;;;;;5074709;28;20060;-56
2022/09/24 08:23:19;;;;;;;12.15;2.22;;;14.30;99.90;;;;;;5074524;28;20040;-55
2022/09/24 08:25:48;;;;;;;11.75;2.92;;;14.50;99.90;;;;;;5074506;28;20041;-56
2022/09/24 08:28:18;;;;;;;17.40;2.33;;;14.40;99.90;;;;;;5074383;28;20044;-56
2022/09/24 08:30:44;;;;;;;14.48;2.40;;;14.60;99.90;;;;;;5073077;28;20048;-56
2022/09/24 08:33:11;;;;;;;7.70;1.70;;;14.50;99.90;;;;;;5074213;28;20040;-54
2022/09/24 08:35:40;;;;;;;13.32;2.15;;;14.60;99.90;;;;;;5074336;28;20071;-56
2022/09/24 08:38:07;;;;;;;12.45;2.25;;;14.50;99.90;;;;;;5073849;28;20051;-56
2022/09/24 08:40:45;;;;;;;13.32;1.95;;;14.50;99.90;;;;;;5074492;28;20425;-55
2022/09/24 08:43:34;;;;;;;10.32;1.65;;;14.70;99.90;;;;;;5058339;28;20072;-56
2022/09/24 08:48:59;;;;;;;11.75;2.10;;;14.60;99.90;;;;;;5073884;28;20049;-54
2022/09/24 08:51:26;;;;;;;13.50;2.33;;;14.60;99.90;;;;;;5074300;28;20037;-55
2022/09/24 08:54:03;;;;;;;19.27;3.05;;;14.60;99.90;;;;;;5073380;28;20056;-54
2022/09/24 08:56:35;;;;;;;17.08;2.42;;;14.60;99.90;;;;;;5073835;28;20044;-55
2022/09/24 08:59:09;;;;;;;12.38;2.20;;;14.70;99.90;;;;;;5073640;28;20491;-55
2022/09/24 09:02:12;;;;;;;13.82;2.58;;;14.70;99.90;;;;;;5073908;28;20071;-55
2022/09/24 09:05:08;;;;;;;10.85;1.92;;;14.60;99.90;;;;;;5071287;28;20040;-54
2022/09/24 09:07:44;;;;;;;11.93;2.63;;;14.70;99.90;;;;;;5061181;28;20028;-54
2022/09/24 09:10:15;;;;;;;10.57;1.70;;;14.70;99.90;;;;;;5073470;28;20052;-54
2022/09/24 09:12:55;;;;;;;11.93;1.90;;;14.60;99.90;;;;;;5073838;28;20044;-54
2022/09/24 09:15:25;;;;;;;17.10;2.03;;;14.70;99.90;;;;;;5058901;28;20039;-54
2022/09/24 09:18:03;;;;;;;9.00;1.40;;;14.80;99.90;;;;;;5072372;28;20044;-55
2022/09/24 09:20:40;;;;;;;10.52;1.63;;;14.70;99.90;;;;;;5068301;28;20072;-55
2022/09/24 09:23:13;;;;;;;7.30;1.27;;;14.70;99.90;;;;;;5073533;28;20047;-55
2022/09/24 09:25:43;;;;;;;6.45;1.80;;;14.70;99.90;;;;;;5072962;28;20041;-54
2022/09/24 09:28:14;;;;;;;9.73;2.50;;;14.70;99.90;;;;;;5073483;28;20040;-55
2022/09/24 09:31:11;;;;;;;8.20;1.48;;;14.80;99.90;;;;;;5073583;28;20079;-54
2022/09/24 09:34:05;;;;;;;6.40;1.38;;;14.70;99.90;;;;;;5061124;28;20395;-55
2022/09/24 09:36:39;;;;;;;10.07;2.42;;;14.80;99.90;;;;;;5073558;28;20051;-55
2022/09/24 09:39:38;;;;;;;10.82;1.60;;;14.90;99.90;;;;;;5072197;28;20051;-55
2022/09/24 09:42:13;;;;;;;12.48;1.63;;;14.90;99.90;;;;;;5071965;28;20368;-66
2022/09/24 09:44:41;;;;;;;3.95;0.85;;;14.90;99.90;;;;;;5070709;28;20438;-66
2022/09/24 09:47:39;;;;;;;6.70;1.23;;;15.00;99.90;;;;;;5073466;28;20037;-67
2022/09/24 09:50:27;;;;;;;6.03;0.85;;;14.90;99.90;;;;;;5072782;28;20040;-66
2022/09/24 09:52:54;;;;;;;3.75;0.65;;;15.00;99.90;;;;;;5072870;28;20036;-66
2022/09/24 09:55:34;;;;;;;3.83;0.70;;;14.90;99.90;;;;;;5071617;28;20044;-67
2022/09/24 09:58:14;;;;;;;;;;;14.90;99.90;;;;;;5073235;28;20040;-67
2022/09/24 10:00:40;;;;;;;5.93;1.48;;;14.90;99.90;;;;;;5073083;28;19959;-66
2022/09/24 10:03:38;;;;;;;6.30;1.30;;;14.90;99.90;;;;;;5073018;28;20040;-66
2022/09/24 10:06:05;;;;;;;3.65;0.82;;;14.90;99.90;;;;;;5072246;28;20037;-66
2022/09/24 10:08:31;;;;;;;6.43;0.90;;;15.00;99.90;;;;;;5073073;28;20036;-66
2022/09/24 10:10:59;;;;;;;5.03;1.00;;;15.10;99.90;;;;;;5072790;28;20036;-66
2022/09/24 10:13:26;;;;;;;3.60;0.80;;;15.20;99.90;;;;;;5072765;28;20532;-66
2022/09/24 10:16:02;;;;;;;5.10;0.80;;;15.20;99.90;;;;;;5072363;28;20044;-66
2022/09/24 10:18:28;;;;;;;5.18;0.85;;;15.20;99.90;;;;;;5057766;28;20494;-67
2022/09/24 10:20:55;;;;;;;4.93;0.98;;;15.20;99.90;;;;;;5072791;28;20045;-67
2022/09/24 10:23:32;;;;;;;4.45;0.70;;;15.30;99.90;;;;;;5072876;28;20399;-67
2022/09/24 10:26:00;;;;;;;2.92;0.75;;;15.30;99.90;;;;;;5072027;28;20364;-66
2022/09/24 10:31:16;;;;;;;5.28;1.20;;;15.40;99.90;;;;;;5073028;28;20076;-67
2022/09/24 10:33:45;;;;;;;3.55;1.05;;;15.30;99.90;;;;;;5072587;28;20128;-67
2022/09/24 10:36:26;;;;;;;8.32;1.13;;;15.20;99.90;;;;;;5070768;28;20434;-66
2022/09/24 10:39:06;;;;;;;6.47;1.58;;;15.30;99.90;;;;;;5054570;28;20048;-67
2022/09/24 10:41:32;;;;;;;6.90;1.20;;;15.30;99.90;;;;;;5072641;28;20398;-67
2022/09/24 10:44:03;;;;;;;9.45;1.40;;;15.30;99.90;;;;;;5071018;28;20048;-67
2022/09/24 10:47:03;;;;;;;13.00;2.03;;;15.20;99.90;;;;;;5056623;28;20033;-67
2022/09/24 10:49:46;;;;;;;11.67;2.70;;;15.30;99.90;;;;;;5072508;28;20049;-67
2022/09/24 10:52:43;;;;;;;9.75;1.50;;;15.30;99.90;;;;;;5071111;28;20056;-55
2022/09/24 10:55:16;;;;;;;8.60;1.48;;;15.20;99.90;;;;;;5071971;28;20057;-56
2022/09/24 10:57:57;;;;;;;10.15;1.77;;;15.30;99.90;;;;;;5072661;28;20072;-56
2022/09/24 11:00:31;;;;;;;7.85;2.03;;;15.30;99.90;;;;;;5072536;28;20041;-54
2022/09/24 11:03:23;;;;;;;10.55;1.73;;;15.40;99.90;;;;;;5072643;28;20059;-56
2022/09/24 11:05:56;;;;;;;13.77;1.50;;;15.30;99.90;;;;;;5072098;28;20548;-56
2022/09/24 11:08:49;;;;;;;9.80;2.03;;;15.30;99.90;;;;;;5072584;28;20040;-56
2022/09/24 11:11:36;;;;;;;9.57;2.03;;;15.30;99.90;;;;;;5073857;28;20085;-57
2022/09/24 11:14:30;;;;;;;12.25;2.13;;;15.30;99.90;;;;;;5075618;28;20044;-57
2022/09/24 11:17:35;;;;;;;6.72;1.35;;;15.10;99.90;;;;;;5074423;28;20048;-55
2022/09/24 11:20:23;;;;;;;6.35;1.15;;;15.10;99.90;;;;;;5073159;28;20052;-56
2022/09/24 11:23:14;;;;;;;5.57;1.38;;;15.10;99.90;;;;;;5076027;28;20119;-57
2022/09/24 11:25:55;;;;;;;11.18;1.30;;;15.10;99.90;;;;;;5075411;28;20045;-57
2022/09/24 11:28:36;;;;;;;9.50;1.42;;;15.10;99.90;;;;;;5075862;28;20047;-56
2022/09/24 11:31:27;;;;;;;10.65;1.55;;;15.00;99.90;;;;;;5075711;28;20048;-56
2022/09/24 11:34:29;;;;;;;3.33;1.20;;;15.10;99.90;;;;;;5075635;28;20120;-56
2022/09/24 11:37:38;;;;;;;7.68;1.40;;;15.00;99.90;;;;;;5075032;28;20387;-56
2022/09/24 11:40:45;;;;;;;11.60;1.40;;;14.90;99.90;;;;;;5075078;28;20051;-58
2022/09/24 11:43:37;;;;;;;6.32;1.35;;;15.00;99.90;;;;;;5036455;28;20049;-59
2022/09/24 11:46:29;;;;;;;12.20;1.42;;;15.00;99.90;;;;;;5046721;28;20033;-56
2022/09/24 11:49:18;;;;;;;5.10;1.00;;;15.00;99.90;;;;;;5052906;28;20139;-56
2022/09/24 11:52:03;;;;;;;10.95;1.00;;;14.90;99.90;;;;;;5035270;28;20045;-57
2022/09/24 11:54:37;;;;;;;4.82;0.98;;;14.90;99.90;;;;;;5051904;28;20376;-56
2022/09/24 11:57:07;;;;;;;6.68;1.48;;;14.90;99.90;;;;;;5052621;28;20143;-56
2022/09/24 11:59:49;;;;;;;5.18;1.10;;;14.90;99.90;;;;;;5052801;28;20049;-54
2022/09/24 12:02:27;;;;;;;7.40;1.42;;;14.90;99.90;;;;;;5052804;28;20037;-55
2022/09/24 12:05:20;;;;;;;7.25;2.10;;;14.90;99.90;;;;;;5052357;28;20071;-56
2022/09/24 12:08:00;;;;;;;6.47;1.50;;;14.90;99.90;;;;;;5052477;28;20076;-56
2022/09/24 12:10:38;;;;;;;3.75;0.90;;;15.00;99.90;;;;;;5052700;28;20076;-56
2022/09/24 12:13:26;;;;;;;6.57;1.33;;;15.00;99.90;;;;;;5052579;28;20049;-56
2022/09/24 12:16:03;;;;;;;5.95;0.80;;;15.00;99.90;;;;;;5052286;28;20044;-57
2022/09/24 12:18:50;;;;;;;4.90;1.33;;;15.00;99.90;;;;;;5052771;28;20040;-56
2022/09/24 12:21:33;;;;;;;2.72;0.70;;;15.00;99.90;;;;;;5073972;28;20033;-54
2022/09/24 12:24:04;;;;;;;4.45;0.82;;;15.10;99.90;;;;;;5072262;28;20364;-56
2022/09/24 12:26:36;;;;;;;6.97;1.77;;;15.00;99.90;;;;;;5074067;28;20065;-55
2022/09/24 12:35:27;;;;;;;4.70;0.75;;;15.10;99.90;;;;;;5051948;28;20037;-52
2022/09/24 12:38:04;;;;;;;5.72;0.82;;;15.00;99.90;;;;;;5051932;28;20040;-55
2022/09/24 12:41:06;;;;;;;4.53;1.40;;;15.00;99.90;;;;;;5051972;28;20037;-55
2022/09/24 12:43:47;;;;;;;4.93;1.00;;;15.10;99.90;;;;;;5051692;28;20056;-55
2022/09/24 12:46:23;;;;;;;3.90;0.80;;;15.00;99.90;;;;;;5050787;28;20044;-55
2022/09/24 12:48:50;;;;;;;6.75;1.42;;;15.00;99.90;;;;;;5051540;28;20123;-54
2022/09/24 12:51:21;;;;;;;7.38;0.93;;;15.00;99.90;;;;;;5051780;28;20464;-53
2022/09/24 12:53:57;;;;;;;6.93;1.48;;;15.00;99.90;;;;;;5051638;28;20085;-55
2022/09/24 12:56:25;;;;;;;4.15;0.98;;;15.00;99.90;;;;;;5051575;28;20091;-54
2022/09/24 12:58:52;;;;;;;4.53;0.93;;;14.90;99.90;;;;;;5051319;28;20043;-54
2022/09/24 13:01:23;;;;;;;7.50;0.82;;;14.90;99.90;;;;;;5051785;28;20144;-55
2022/09/24 13:04:24;;;;;;;4.47;0.90;;;14.90;99.90;;;;;;5051643;28;20131;-55
2022/09/24 13:06:51;;;;;;;7.65;1.58;;;14.90;99.90;;;;;;5051486;28;20051;-55
2022/09/24 13:09:36;;;;;;;2.75;0.73;;;14.90;99.90;;;;;;5061450;28;20048;-55
2022/09/24 13:12:14;;;;;;;6.20;1.02;;;14.90;99.90;;;;;;5057156;28;20048;-55
2022/09/24 13:14:46;;;;;;;8.15;1.10;;;14.80;99.90;;;;;;5073365;28;20072;-56
2022/09/24 13:17:14;;;;;;;4.32;0.80;;;14.90;99.90;;;;;;5073707;28;20123;-56